»·PEaware :: CFEGU KOTH-KPDX

CFEGU :: KOTH-KPDX

FLIGHT INFORMATION

Flight Status: Arrived
Operator: Unknown
More flights by this operator :: More flights under this callsign
Pilot: Vincent M. (370)
Aircraft: CESSNA 172 SKYHAWK
(C172)
More flights by this aircraft type
Origin: KOTH North Bend Mun
United States
Destination: KPDX Portland Intl
United States
More flights between these airports :: More routes between these airports
Route: +
File this flight plan on PilotEdge
Remarks:
Altitude:
(Current/Filed)
5,500ft
Speed:
(Current/Filed)
0kts
Departed: 13-Feb-20 05:54 PM
Arrived: 13-Feb-20 07:28 PM
Distance/Time
Traveled:
148nm/1:34
Distance/Time
To Go:
Arrived

Flight Plot

Page will automatically refresh every two minutes.

Flight plan parsing failed; only flown route is shown


Map Options




Map Legend


Flown Route
Filed Route
Departure Airport
Arrival Airport
Navaid (VOR, NDB)
Fix

Horizontal Profiles

Position Reports

Time Latitude Longitude Heading Altitude Ground
Speed
13-Feb-20 17:50 43.416451 -124.246059 330 21ft 0kts
13-Feb-20 17:51 43.416451 -124.246059 330 21ft 0kts
13-Feb-20 17:52 43.419093 -124.246791 43 21ft 0kts
13-Feb-20 17:53 43.418024 -124.244725 149 21ft 47kts
13-Feb-20 17:54 43.400076 -124.228133 138 674ft 91kts
13-Feb-20 17:55 43.407258 -124.195851 55 1387ft 101kts
13-Feb-20 17:56 43.428968 -124.173243 8 2089ft 102kts
13-Feb-20 17:57 43.456718 -124.175549 352 2846ft 96kts
13-Feb-20 17:58 43.482231 -124.180179 352 3616ft 91kts
13-Feb-20 17:59 43.507104 -124.180519 19 4314ft 90kts
13-Feb-20 18:00 43.529673 -124.167047 23 5009ft 86kts
13-Feb-20 18:01 43.551823 -124.153569 23 5505ft 101kts
13-Feb-20 18:02 43.579758 -124.136376 24 5500ft 113kts
13-Feb-20 18:03 43.608676 -124.118523 24 5500ft 114kts
13-Feb-20 18:04 43.637520 -124.100618 24 5500ft 114kts
13-Feb-20 18:05 43.666485 -124.082570 24 5499ft 114kts
13-Feb-20 18:06 43.695332 -124.064526 24 5499ft 114kts
13-Feb-20 18:07 43.724175 -124.046414 24 5500ft 114kts
13-Feb-20 18:08 43.753126 -124.028490 23 5500ft 114kts
13-Feb-20 18:09 43.774002 -123.998042 63 5500ft 114kts
13-Feb-20 18:10 43.788320 -123.958857 63 5500ft 114kts
13-Feb-20 18:11 43.802577 -123.919714 63 5499ft 114kts
13-Feb-20 18:12 43.816821 -123.880373 63 5499ft 114kts
13-Feb-20 18:13 43.835402 -123.845067 48 5499ft 114kts
13-Feb-20 18:14 43.862700 -123.822749 29 5500ft 114kts
13-Feb-20 18:15 43.890109 -123.800643 30 5500ft 114kts
13-Feb-20 18:16 43.917368 -123.778087 30 5499ft 114kts
13-Feb-20 18:17 43.944520 -123.755450 30 5500ft 114kts
13-Feb-20 18:18 43.971737 -123.732730 30 5500ft 114kts
13-Feb-20 18:19 43.998959 -123.710310 26 5500ft 114kts
13-Feb-20 18:20 44.027425 -123.690605 26 5500ft 114kts
13-Feb-20 18:21 44.055881 -123.671131 25 5500ft 114kts
13-Feb-20 18:22 44.084337 -123.651688 25 5500ft 114kts
13-Feb-20 18:23 44.112877 -123.632183 25 5500ft 114kts
13-Feb-20 18:24 44.141347 -123.612703 25 5500ft 114kts
13-Feb-20 18:25 44.169823 -123.593203 25 5500ft 114kts
13-Feb-20 18:26 44.198351 -123.573644 25 5499ft 114kts
13-Feb-20 18:27 44.226854 -123.554083 25 5500ft 114kts
13-Feb-20 18:28 44.255299 -123.534539 25 5500ft 114kts
13-Feb-20 18:29 44.283814 -123.514891 25 5499ft 114kts
13-Feb-20 18:30 44.312313 -123.495308 25 5500ft 114kts
13-Feb-20 18:31 44.340799 -123.475673 25 5500ft 114kts
13-Feb-20 18:32 44.369254 -123.456031 25 5500ft 114kts
13-Feb-20 18:33 44.397656 -123.436411 25 5500ft 114kts
13-Feb-20 18:34 44.425517 -123.417141 25 5500ft 114kts
13-Feb-20 18:35 44.453918 -123.397480 25 5499ft 114kts
13-Feb-20 18:36 44.482456 -123.377702 25 5500ft 114kts
13-Feb-20 18:37 44.510851 -123.357999 25 5500ft 114kts
13-Feb-20 18:38 44.539405 -123.338164 26 5500ft 114kts
13-Feb-20 18:39 44.567863 -123.318376 26 5500ft 114kts
13-Feb-20 18:40 44.596265 -123.298605 26 5500ft 114kts
13-Feb-20 18:41 44.624752 -123.278718 26 5500ft 114kts
13-Feb-20 18:42 44.653146 -123.258944 26 5500ft 114kts
13-Feb-20 18:43 44.681596 -123.239073 26 5500ft 114kts
13-Feb-20 18:44 44.710021 -123.219198 26 5499ft 114kts
13-Feb-20 18:45 44.738456 -123.199295 26 5500ft 114kts
13-Feb-20 18:46 44.766995 -123.179297 26 5500ft 114kts
13-Feb-20 18:47 44.795386 -123.159380 26 5500ft 114kts
13-Feb-20 18:48 44.823925 -123.139881 24 5500ft 114kts
13-Feb-20 18:49 44.852652 -123.120552 26 5500ft 114kts
13-Feb-20 18:50 44.881349 -123.101199 25 5499ft 114kts
13-Feb-20 18:51 44.908073 -123.078502 52 5500ft 114kts
13-Feb-20 18:52 44.926649 -123.042119 54 5500ft 114kts
13-Feb-20 18:53 44.945675 -123.006197 46 5500ft 114kts
13-Feb-20 18:54 44.964762 -122.972648 54 5500ft 114kts
13-Feb-20 18:55 44.983188 -122.936087 54 5500ft 114kts
13-Feb-20 18:56 45.002933 -122.900863 50 5499ft 114kts
13-Feb-20 18:57 45.023072 -122.866101 50 5500ft 114kts
13-Feb-20 18:58 45.043218 -122.831247 50 5499ft 114kts
13-Feb-20 18:59 45.063683 -122.796942 44 5499ft 114kts
13-Feb-20 19:00 45.086562 -122.765647 43 5499ft 114kts
13-Feb-20 19:01 45.109401 -122.734377 43 5500ft 114kts
13-Feb-20 19:02 45.132558 -122.703435 27 5495ft 114kts
13-Feb-20 19:04 45.162165 -122.715492 333 5495ft 114kts
13-Feb-20 19:05 45.190705 -122.735285 333 5495ft 114kts
13-Feb-20 19:06 45.219276 -122.755043 333 5495ft 114kts
13-Feb-20 19:07 45.247804 -122.775085 331 5495ft 114kts
13-Feb-20 19:08 45.275694 -122.796881 331 5495ft 114kts
13-Feb-20 19:09 45.303548 -122.818734 330 5495ft 114kts
13-Feb-20 19:10 45.331281 -122.840505 331 5159ft 114kts
13-Feb-20 19:11 45.359107 -122.862302 331 4501ft 116kts
13-Feb-20 19:12 45.387157 -122.884211 331 4500ft 114kts
13-Feb-20 19:13 45.415136 -122.906005 331 4500ft 114kts
13-Feb-20 19:14 45.442969 -122.927624 331 4500ft 114kts
13-Feb-20 19:15 45.471944 -122.920447 25 4494ft 114kts
13-Feb-20 19:16 45.500705 -122.901226 25 4494ft 114kts
13-Feb-20 19:17 45.529424 -122.881968 25 4494ft 114kts
13-Feb-20 19:18 45.558104 -122.862657 25 4494ft 114kts
13-Feb-20 19:19 45.587813 -122.842542 25 3785ft 120kts
13-Feb-20 19:20 45.615926 -122.817435 43 2784ft 120kts
13-Feb-20 19:20 45.635833 -122.789663 52 1949ft 120kts
13-Feb-20 19:22 45.643660 -122.736915 99 1005ft 117kts
13-Feb-20 19:23 45.635715 -122.699945 119 984ft 83kts
13-Feb-20 19:23 45.626090 -122.676056 120 884ft 73kts
13-Feb-20 19:25 45.614912 -122.646769 117 558ft 70kts
13-Feb-20 19:26 45.605361 -122.622747 116 309ft 66kts
13-Feb-20 19:26 45.597790 -122.603191 118 120ft 64kts
13-Feb-20 19:27 45.591458 -122.586985 123 27ft 13kts
13-Feb-20 19:29 45.589947 -122.586290 116 27ft 11kts
13-Feb-20 19:29 45.588755 -122.583327 119 27ft 8kts
13-Feb-20 19:30 45.587344 -122.579694 120 27ft 10kts
13-Feb-20 19:31 45.585943 -122.576773 191 27ft 7kts
13-Feb-20 19:32 45.584749 -122.576989 310 27ft 0kts
13-Feb-20 19:33 45.584749 -122.576989 310 27ft 0kts

Navigation Log

Ident Type
Flight plan parsing failed, navigation log unavailable